Time;durP1;ratioP1;P1;durP2;ratioP2;P2;SDS_P1;SDS_P2;PMS_P1;PMS_P2;Temp;Humidity;BMP_temperature;BMP_pressure;BME280_temperature;BME280_humidity;BME280_pressure;Samples;Min_cycle;Max_cycle;Signal;HPM_P1;HPM_P2
2022/06/05 08:46:25;;;;;;;3.27;2.40;;;19.20;99.90;;;;;;6276151;22;1240088;-84
2022/06/05 08:49:14;;;;;;;3.03;2.60;;;19.40;99.90;;;;;;6264713;22;20642;-87
2022/06/05 08:51:48;;;;;;;2.10;1.97;;;19.60;99.90;;;;;;6255650;22;20783;-88
2022/06/05 08:54:23;;;;;;;2.17;2.07;;;19.70;99.90;;;;;;6262231;22;20474;-87
2022/06/05 08:56:58;;;;;;;2.40;2.20;;;19.90;99.90;;;;;;6261020;22;20389;-87
2022/06/05 08:59:31;;;;;;;2.17;2.07;;;20.30;99.90;;;;;;6264558;22;20775;-87
2022/06/05 09:02:36;;;;;;;3.47;1.90;;;20.40;99.90;;;;;;6269084;22;20384;-88
2022/06/05 09:05:08;;;;;;;3.70;2.23;;;20.40;99.90;;;;;;6221174;22;20429;-86
2022/06/05 09:07:47;;;;;;;5.10;2.33;;;20.40;99.90;;;;;;6260972;22;20386;-87
2022/06/05 09:10:31;;;;;;;1.83;1.70;;;20.50;99.90;;;;;;6261997;22;20843;-87
2022/06/05 09:13:05;;;;;;;3.30;1.40;;;20.90;99.90;;;;;;6260452;22;20402;-86
2022/06/05 09:15:37;;;;;;;2.07;1.70;;;21.10;99.90;;;;;;6262069;22;20934;-85
2022/06/05 09:18:16;;;;;;;1.47;1.40;;;21.20;99.90;;;;;;6258772;22;20388;-86
2022/06/05 09:20:47;;;;;;;1.90;1.80;;;21.50;99.90;;;;;;6257512;22;20398;-87
2022/06/05 09:23:59;;;;;;;2.20;1.50;;;22.00;99.90;;;;;;6259278;22;20525;-87
2022/06/05 09:26:42;;;;;;;1.60;1.47;;;22.20;99.90;;;;;;6254036;22;20506;-87
2022/06/05 09:29:34;;;;;;;2.13;1.93;;;22.40;99.90;;;;;;6253029;22;20897;-88
2022/06/05 09:32:41;;;;;;;4.37;2.93;;;22.40;99.90;;;;;;6257494;22;20432;-90
2022/06/05 09:35:22;;;;;;;2.60;2.40;;;22.20;99.90;;;;;;6283819;22;20371;-89
2022/06/05 09:38:09;;;;;;;2.67;1.70;;;21.80;99.90;;;;;;6258933;22;20693;-91
2022/06/05 09:40:40;;;;;;;7.87;7.10;;;21.60;99.90;;;;;;6256389;22;20775;-90
2022/06/05 09:43:30;;;;;;;2.13;1.90;;;21.80;99.90;;;;;;6233918;22;20392;-89
2022/06/05 09:46:23;;;;;;;3.70;1.60;;;21.80;99.90;;;;;;6281849;22;20471;-86
2022/06/05 09:49:01;;;;;;;4.13;2.83;;;21.60;99.90;;;;;;6256984;22;20386;-91
2022/06/05 09:51:27;;;;;;;3.70;1.90;;;21.50;99.90;;;;;;6260671;22;20435;-87
2022/06/05 09:54:21;;;;;;;2.27;2.03;;;21.50;99.90;;;;;;6255088;22;20392;-88
2022/06/05 10:00:14;;;;;;;2.30;2.07;;;21.80;99.90;;;;;;6282920;22;20514;-87
2022/06/05 10:02:42;;;;;;;2.80;2.17;;;21.90;99.90;;;;;;6257779;22;20831;-87
2022/06/05 10:05:37;;;;;;;3.20;2.40;;;22.30;99.90;;;;;;6252643;22;20388;-87
2022/06/05 10:08:16;;;;;;;3.50;2.70;;;22.30;99.90;;;;;;6254337;22;20400;-87
2022/06/05 10:10:45;;;;;;;2.83;2.60;;;22.20;99.90;;;;;;6252808;22;20420;-88
2022/06/05 10:13:44;;;;;;;3.90;2.73;;;22.10;99.90;;;;;;6256144;22;20392;-87
2022/06/05 10:16:44;;;;;;;3.37;3.00;;;22.00;99.90;;;;;;6253697;22;20380;-87
2022/06/05 10:20:18;;;;;;;5.43;3.17;;;21.90;99.90;;;;;;6254838;22;20384;-88
2022/06/05 10:23:16;;;;;;;4.13;2.70;;;21.70;99.90;;;;;;6257645;22;20472;-87
2022/06/05 10:25:59;;;;;;;6.90;3.40;;;21.40;99.90;;;;;;6255540;22;20385;-88
2022/06/05 10:28:28;;;;;;;4.30;2.83;;;21.30;99.90;;;;;;6256903;22;20392;-87
2022/06/05 10:31:02;;;;;;;5.00;3.20;;;21.10;99.90;;;;;;6256791;22;20613;-88
2022/06/05 10:33:49;;;;;;;2.93;2.73;;;21.10;99.90;;;;;;6252646;22;20380;-88
2022/06/05 10:40:37;;;;;;;4.80;4.30;;;20.80;99.90;;;;;;6284184;22;20959;-96
2022/06/05 10:43:13;;;;;;;5.30;4.50;;;20.70;99.90;;;;;;6260717;22;20750;-93
2022/06/05 10:45:42;;;;;;;5.00;4.60;;;20.50;99.90;;;;;;6256874;22;20399;-91
2022/06/05 10:48:18;;;;;;;5.00;4.40;;;20.40;99.90;;;;;;6258966;22;20765;-94
2022/06/05 10:51:35;;;;;;;5.20;4.70;;;20.30;99.90;;;;;;6281253;22;20431;-94
2022/06/05 10:54:29;;;;;;;6.40;4.60;;;20.20;99.90;;;;;;6255390;22;20676;-93
2022/06/05 10:58:04;;;;;;;6.57;5.03;;;20.10;99.90;;;;;;6253737;22;20393;-94
2022/06/05 11:00:53;;;;;;;5.60;4.87;;;19.90;99.90;;;;;;6073961;23;20397;-92
2022/06/05 11:03:28;;;;;;;4.70;4.00;;;19.80;99.90;;;;;;6253540;22;20450;-86
2022/06/05 11:06:47;;;;;;;4.10;3.70;;;19.70;99.90;;;;;;6222159;22;20458;-85
2022/06/05 11:09:42;;;;;;;4.90;4.50;;;19.50;99.90;;;;;;6182465;23;20466;-85
2022/06/05 11:15:52;;;;;;;6.10;4.57;;;19.10;99.90;;;;;;6248154;22;20777;-85
2022/06/05 11:18:35;;;;;;;5.20;4.73;;;19.10;99.90;;;;;;6249816;22;20949;-85
2022/06/05 11:21:02;;;;;;;5.00;4.50;;;19.20;99.90;;;;;;6252238;22;20414;-85
2022/06/05 11:23:32;;;;;;;6.90;4.87;;;19.30;99.90;;;;;;6225782;22;20483;-85
2022/06/05 11:26:23;;;;;;;4.83;4.50;;;19.40;99.90;;;;;;6255618;22;20377;-84
2022/06/05 11:28:56;;;;;;;5.17;4.37;;;19.50;99.90;;;;;;6246222;22;20373;-85
2022/06/05 11:31:36;;;;;;;8.13;6.20;;;19.50;99.90;;;;;;6251652;22;20421;-85
2022/06/05 11:34:20;;;;;;;7.00;5.53;;;19.40;99.90;;;;;;6221977;22;20491;-85
2022/06/05 11:36:51;;;;;;;5.93;5.43;;;19.40;99.90;;;;;;6254558;22;20369;-85
2022/06/05 11:39:22;;;;;;;5.40;4.90;;;19.60;99.90;;;;;;6257432;22;20678;-85
2022/06/05 11:41:54;;;;;;;5.30;3.90;;;20.00;99.90;;;;;;6249154;22;20389;-85
2022/06/05 11:44:54;;;;;;;4.30;3.90;;;20.60;99.90;;;;;;6252772;22;20815;-85
2022/06/05 11:47:50;;;;;;;4.17;3.80;;;20.90;99.90;;;;;;6252143;22;20388;-85
2022/06/05 11:50:27;;;;;;;3.73;3.33;;;20.70;99.90;;;;;;6251580;22;20769;-85
2022/06/05 11:52:55;;;;;;;4.80;4.00;;;20.60;99.90;;;;;;6252110;22;20379;-85
2022/06/05 11:55:42;;;;;;;4.23;3.87;;;20.90;99.90;;;;;;6255930;22;20471;-85
2022/06/05 11:58:17;;;;;;;5.10;3.63;;;21.00;99.90;;;;;;6222534;22;20815;-85
2022/06/05 12:00:58;;;;;;;5.20;3.80;;;21.40;99.90;;;;;;6220803;22;20403;-85
2022/06/05 12:03:43;;;;;;;4.43;2.50;;;21.80;99.90;;;;;;6246635;22;20782;-86
2022/06/05 12:06:21;;;;;;;3.33;3.03;;;22.20;99.90;;;;;;6252037;22;20508;-85
2022/06/05 12:08:58;;;;;;;3.27;2.73;;;22.30;99.90;;;;;;6252709;22;20368;-85
2022/06/05 12:11:27;;;;;;;2.83;2.63;;;22.00;99.90;;;;;;6251479;22;20428;-85
2022/06/05 12:13:56;;;;;;;3.70;3.30;;;21.70;99.90;;;;;;6250095;22;20407;-86
2022/06/05 12:16:27;;;;;;;2.70;2.40;;;21.80;99.90;;;;;;6252552;22;20381;-85
2022/06/05 12:19:03;;;;;;;4.20;3.20;;;21.90;99.90;;;;;;6223941;22;20424;-86
2022/06/05 12:21:50;;;;;;;3.87;3.50;;;21.50;99.90;;;;;;6251898;22;20385;-85
2022/06/05 12:24:22;;;;;;;3.63;3.27;;;21.50;99.90;;;;;;6250674;22;20474;-85
2022/06/05 12:26:50;;;;;;;3.33;2.70;;;21.40;99.90;;;;;;6225707;22;20944;-86
2022/06/05 12:29:33;;;;;;;3.00;2.70;;;21.60;99.90;;;;;;6251615;22;20369;-86
2022/06/05 12:32:10;;;;;;;3.30;2.77;;;21.60;99.90;;;;;;6251651;22;20420;-86
2022/06/05 12:34:51;;;;;;;4.83;3.13;;;21.60;99.90;;;;;;6247422;22;20380;-85
2022/06/05 12:37:26;;;;;;;3.10;2.53;;;21.80;99.90;;;;;;6252502;22;20380;-85
2022/06/05 12:39:54;;;;;;;3.13;2.83;;;22.00;99.90;;;;;;6251371;22;20397;-85
2022/06/05 12:42:39;;;;;;;4.77;2.87;;;22.30;99.90;;;;;;6221273;22;20394;-86
2022/06/05 12:45:16;;;;;;;4.10;3.57;;;22.60;99.90;;;;;;6252795;22;20798;-85
2022/06/05 12:47:59;;;;;;;3.40;3.10;;;23.30;99.90;;;;;;6249945;22;20805;-86
2022/06/05 12:50:47;;;;;;;5.00;3.40;;;23.60;99.90;;;;;;6222773;22;20950;-87
2022/06/05 12:53:46;;;;;;;3.30;3.00;;;24.10;99.90;;;;;;6252248;22;20384;-86
2022/06/05 12:56:38;;;;;;;4.83;3.00;;;24.20;99.90;;;;;;6227553;22;20784;-85
2022/06/05 12:59:17;;;;;;;8.37;3.30;;;23.50;99.90;;;;;;6253126;22;20372;-87
2022/06/05 13:01:51;;;;;;;5.13;3.30;;;23.00;99.90;;;;;;6256266;22;20369;-86
2022/06/05 13:04:44;;;;;;;4.33;2.97;;;22.60;99.90;;;;;;6226290;22;20775;-86
2022/06/05 13:07:20;;;;;;;3.47;3.00;;;22.50;99.90;;;;;;6254017;22;20681;-85
2022/06/05 13:09:51;;;;;;;4.33;3.93;;;22.50;99.90;;;;;;6227196;22;20498;-85
2022/06/05 13:12:43;;;;;;;4.30;3.40;;;22.60;99.90;;;;;;6255142;22;20739;-85
2022/06/05 13:15:30;;;;;;;4.27;3.37;;;22.80;99.90;;;;;;6219056;22;20883;-85
2022/06/05 13:18:03;;;;;;;4.60;3.97;;;23.00;99.90;;;;;;6227394;22;20400;-85
2022/06/05 13:20:49;;;;;;;5.63;3.43;;;23.00;99.90;;;;;;6254468;22;20365;-86
2022/06/05 13:23:25;;;;;;;4.87;3.03;;;23.00;99.90;;;;;;6230204;22;20377;-85
2022/06/05 13:25:57;;;;;;;4.27;3.07;;;22.80;99.90;;;;;;6228521;22;20486;-85
2022/06/05 13:29:10;;;;;;;3.20;2.70;;;22.70;99.90;;;;;;6254429;22;20404;-85
2022/06/05 13:32:15;;;;;;;2.77;2.40;;;22.70;99.90;;;;;;6217390;22;20526;-85
2022/06/05 13:34:56;;;;;;;3.73;2.60;;;22.70;99.90;;;;;;6251791;22;20396;-85
2022/06/05 13:37:28;;;;;;;3.40;2.50;;;22.70;99.90;;;;;;6254423;22;20863;-85
2022/06/05 13:40:14;;;;;;;4.13;2.30;;;22.50;99.90;;;;;;6255608;22;20750;-85
2022/06/05 13:42:47;;;;;;;2.90;2.70;;;22.50;99.90;;;;;;6255777;22;20384;-85
2022/06/05 13:45:40;;;;;;;6.00;2.67;;;22.30;99.90;;;;;;6255326;22;20380;-85
2022/06/05 13:48:18;;;;;;;3.43;2.90;;;22.30;99.90;;;;;;6247791;22;20428;-85
2022/06/05 13:50:59;;;;;;;4.17;2.07;;;22.50;99.90;;;;;;6226956;22;20440;-85
2022/06/05 13:53:32;;;;;;;1.90;1.80;;;22.40;99.90;;;;;;6253428;22;20400;-85
2022/06/05 13:56:19;;;;;;;3.00;1.80;;;22.40;99.90;;;;;;6254742;22;20407;-87
2022/06/05 13:58:59;;;;;;;3.23;2.40;;;22.40;99.90;;;;;;6255550;22;21127;-86
2022/06/05 14:01:39;;;;;;;3.27;2.13;;;22.50;99.90;;;;;;6257384;22;20380;-86
2022/06/05 14:04:18;;;;;;;2.10;1.93;;;22.20;99.90;;;;;;6262184;22;20672;-86
2022/06/05 14:06:56;;;;;;;3.03;2.00;;;22.10;99.90;;;;;;6221719;22;20992;-86
2022/06/05 14:09:40;;;;;;;2.37;2.20;;;22.00;99.90;;;;;;6255978;22;20845;-86
2022/06/05 14:12:17;;;;;;;4.67;2.77;;;22.00;99.90;;;;;;6228273;22;20494;-87
2022/06/05 14:14:44;;;;;;;3.90;1.77;;;22.00;99.90;;;;;;6261284;22;20397;-87
2022/06/05 14:17:29;;;;;;;2.77;2.17;;;21.90;99.90;;;;;;6230002;22;20756;-86
2022/06/05 14:20:19;;;;;;;3.63;2.10;;;21.70;99.90;;;;;;6261124;22;20450;-86
2022/06/05 14:22:48;;;;;;;2.50;1.80;;;21.60;99.90;;;;;;6262514;22;20388;-87
2022/06/05 14:25:18;;;;;;;2.80;2.23;;;21.60;99.90;;;;;;6235601;22;20388;-87
2022/06/05 14:27:45;;;;;;;3.23;2.13;;;21.50;99.90;;;;;;6261282;22;20730;-86
2022/06/05 14:30:23;;;;;;;2.20;1.97;;;21.40;99.90;;;;;;6261432;22;20760;-86
2022/06/05 14:32:50;;;;;;;5.10;2.50;;;21.40;99.90;;;;;;6262230;22;20472;-86
2022/06/05 14:35:30;;;;;;;2.90;2.40;;;21.20;99.90;;;;;;6259333;22;20377;-85
2022/06/05 14:39:45;;;;;;;2.70;2.50;;;21.00;99.90;;;;;;5010334;27;21055;-85
2022/06/05 14:42:34;;;;;;;3.30;2.80;;;21.00;99.90;;;;;;5012159;28;20440;-85
2022/06/05 14:45:39;;;;;;;2.70;2.50;;;21.00;99.90;;;;;;5008826;28;20438;-86
2022/06/05 14:48:34;;;;;;;2.47;2.27;;;21.00;99.90;;;;;;5026266;28;20984;-88
2022/06/05 14:51:37;;;;;;;2.80;2.60;;;21.00;99.90;;;;;;4997932;28;20436;-85
2022/06/05 14:57:51;;;;;;;4.40;2.70;;;21.00;99.90;;;;;;5012558;28;20526;-85
2022/06/05 15:00:19;;;;;;;3.70;3.40;;;21.10;99.90;;;;;;5005398;28;20465;-86
2022/06/05 15:03:00;;;;;;;3.37;2.97;;;21.10;99.90;;;;;;4999932;28;20896;-86
2022/06/05 15:05:30;;;;;;;4.07;3.00;;;21.10;99.90;;;;;;5013699;28;21548;-86
2022/06/05 15:08:21;;;;;;;4.03;3.10;;;21.20;99.90;;;;;;4999708;28;20813;-85
2022/06/05 15:10:53;;;;;;;3.40;3.20;;;21.10;99.90;;;;;;4994394;28;22335;-87
2022/06/05 15:13:33;;;;;;;3.00;2.80;;;21.20;99.90;;;;;;4995411;28;20439;-87
2022/06/05 15:16:33;;;;;;;3.50;3.20;;;21.30;99.90;;;;;;5029427;28;20504;-85
2022/06/05 15:19:00;;;;;;;3.73;3.33;;;21.30;99.90;;;;;;5001727;28;21077;-84
2022/06/05 15:21:41;;;;;;;3.43;3.20;;;21.50;99.90;;;;;;4999963;28;20533;-84
2022/06/05 15:24:42;;;;;;;3.53;3.23;;;21.70;99.90;;;;;;4988459;28;21025;-87
2022/06/05 15:27:31;;;;;;;14.57;13.40;;;21.70;99.90;;;;;;4995824;28;20443;-87
2022/06/05 15:30:12;;;;;;;3.30;2.97;;;21.80;99.90;;;;;;4991663;28;20444;-86
2022/06/05 15:33:02;;;;;;;3.13;2.83;;;21.60;99.90;;;;;;5021302;28;20920;-86
2022/06/05 15:36:04;;;;;;;3.87;3.10;;;21.60;99.90;;;;;;5008745;28;20794;-85
2022/06/05 15:39:00;;;;;;;3.77;3.53;;;21.70;99.90;;;;;;5051522;28;21110;-86
2022/06/05 15:41:54;;;;;;;4.60;3.13;;;21.70;99.90;;;;;;5013493;28;20463;-86
2022/06/05 15:44:39;;;;;;;5.00;4.00;;;21.50;99.90;;;;;;5009485;28;20488;-86
2022/06/05 15:47:16;;;;;;;3.80;3.50;;;21.50;99.90;;;;;;5036150;28;20436;-86
2022/06/05 15:50:05;;;;;;;3.60;3.30;;;21.40;99.90;;;;;;5023152;28;20458;-86
2022/06/05 15:52:41;;;;;;;3.97;3.67;;;21.30;99.90;;;;;;4982106;28;20544;-85
2022/06/05 15:55:32;;;;;;;4.40;4.10;;;21.20;99.90;;;;;;5016548;28;20951;-85
2022/06/05 15:58:29;;;;;;;4.60;4.20;;;21.10;99.90;;;;;;4986243;28;20514;-85
2022/06/05 16:01:18;;;;;;;6.10;4.20;;;20.90;99.90;;;;;;5011262;28;20504;-86
2022/06/05 16:04:11;;;;;;;5.70;4.10;;;20.70;99.90;;;;;;5012032;28;20810;-85
2022/06/05 16:06:57;;;;;;;5.87;4.20;;;20.40;99.90;;;;;;4988524;28;20451;-86
2022/06/05 16:10:08;;;;;;;5.20;4.20;;;20.20;99.90;;;;;;4992153;28;21107;-88
2022/06/05 16:12:37;;;;;;;17.00;7.00;;;19.70;99.90;;;;;;4996292;28;20436;-87
2022/06/05 16:15:03;;;;;;;7.23;3.93;;;18.80;99.90;;;;;;4984761;28;20831;-86
2022/06/05 16:17:40;;;;;;;17.47;12.17;;;18.40;99.90;;;;;;4999483;28;21106;-86
2022/06/05 16:20:26;;;;;;;8.50;5.20;;;18.20;99.90;;;;;;5009266;28;20220;-86
2022/06/05 16:23:18;;;;;;;11.87;9.00;;;18.10;99.90;;;;;;4981588;28;21954;-86
2022/06/05 16:25:56;;;;;;;4.37;4.07;;;18.00;99.90;;;;;;5009658;28;20436;-86
2022/06/05 16:28:30;;;;;;;3.80;3.40;;;18.20;99.90;;;;;;5009017;28;20447;-86
2022/06/05 16:31:26;;;;;;;4.60;3.13;;;18.60;99.90;;;;;;4999520;28;20511;-86
2022/06/05 16:33:52;;;;;;;3.33;3.13;;;19.20;99.90;;;;;;4987576;28;20471;-86
2022/06/05 16:39:27;;;;;;;3.63;3.33;;;19.50;99.90;;;;;;4990926;28;21295;-85
2022/06/05 16:42:04;;;;;;;3.60;3.30;;;19.40;99.90;;;;;;4990827;28;20509;-85
2022/06/05 16:45:02;;;;;;;4.50;4.10;;;19.00;99.90;;;;;;4974898;28;20455;-84
2022/06/05 16:47:33;;;;;;;3.00;2.70;;;18.80;99.90;;;;;;4988855;28;20471;-85
2022/06/05 16:50:31;;;;;;;3.30;3.10;;;18.70;99.90;;;;;;5016600;28;20666;-86
2022/06/05 16:53:24;;;;;;;4.00;3.03;;;18.70;99.90;;;;;;5007710;28;22691;-85
2022/06/05 16:56:21;;;;;;;5.60;5.00;;;18.80;99.90;;;;;;5005024;28;20429;-86
2022/06/05 16:59:06;;;;;;;4.93;4.43;;;18.80;99.90;;;;;;4972256;28;20495;-85
2022/06/05 17:01:56;;;;;;;4.40;3.70;;;18.80;99.90;;;;;;4967784;28;20451;-85
2022/06/05 17:04:25;;;;;;;4.23;2.20;;;18.80;99.90;;;;;;4966316;28;20462;-85
2022/06/05 17:07:24;;;;;;;4.57;2.47;;;18.80;99.90;;;;;;4994882;28;20447;-85
2022/06/05 17:09:50;;;;;;;3.10;2.20;;;18.80;99.90;;;;;;5001438;28;20440;-85
2022/06/05 17:12:28;;;;;;;4.03;2.80;;;19.00;99.90;;;;;;4969406;28;20993;-85
2022/06/05 17:14:54;;;;;;;3.43;3.00;;;19.00;99.90;;;;;;4967865;28;20860;-85
2022/06/05 17:17:27;;;;;;;8.17;5.13;;;19.10;99.90;;;;;;4999002;28;20778;-85
2022/06/05 17:19:59;;;;;;;4.63;3.50;;;19.00;99.90;;;;;;4986053;28;20310;-85
2022/06/05 17:22:38;;;;;;;3.27;2.37;;;18.90;99.90;;;;;;4981244;28;21877;-86
2022/06/05 17:25:32;;;;;;;3.90;1.93;;;19.00;99.90;;;;;;4971902;28;20444;-86
2022/06/05 17:28:25;;;;;;;2.57;2.00;;;19.20;99.90;;;;;;5004015;28;21518;-86
2022/06/05 17:31:01;;;;;;;5.10;2.00;;;19.80;99.90;;;;;;4971445;28;20982;-86
2022/06/05 17:34:04;;;;;;;2.23;2.00;;;20.90;99.90;;;;;;5008542;28;20537;-86
2022/06/05 17:36:38;;;;;;;2.30;2.00;;;21.40;99.90;;;;;;4967100;28;20778;-85
2022/06/05 17:39:48;;;;;;;2.57;2.07;;;21.50;99.90;;;;;;4999902;28;20640;-86
2022/06/05 17:42:36;;;;;;;6.30;1.97;;;21.80;99.90;;;;;;4978033;28;20533;-86
2022/06/05 17:45:24;;;;;;;2.20;2.00;;;22.70;99.90;;;;;;4969468;28;20556;-86
2022/06/05 17:48:08;;;;;;;1.73;1.63;;;24.20;99.90;;;;;;5008882;28;20445;-86
2022/06/05 17:51:23;;;;;;;1.70;1.60;;;25.40;99.90;;;;;;4996606;28;20455;-86
2022/06/05 17:53:50;;;;;;;2.47;1.57;;;27.40;99.90;;;;;;5000683;28;21814;-86
2022/06/05 17:56:31;;;;;;;1.87;1.47;;;27.90;99.30;;;;;;4964668;28;21074;-87
2022/06/05 17:58:57;;;;;;;1.93;1.73;;;27.60;98.80;;;;;;4971479;28;21290;-86
2022/06/05 18:01:30;;;;;;;3.83;1.80;;;26.80;99.90;;;;;;4967236;28;20914;-86
2022/06/05 18:03:56;;;;;;;1.83;1.63;;;26.40;99.90;;;;;;4977355;28;20746;-86
2022/06/05 18:06:31;;;;;;;1.40;1.30;;;25.00;99.90;;;;;;4966505;28;20510;-85
2022/06/05 18:09:20;;;;;;;1.53;1.43;;;24.10;99.90;;;;;;4968619;28;20470;-86
2022/06/05 18:11:49;;;;;;;1.97;1.50;;;22.80;99.90;;;;;;4983374;28;20454;-86
2022/06/05 18:14:30;;;;;;;1.50;1.40;;;22.20;99.90;;;;;;4967051;28;20448;-85
2022/06/05 18:16:59;;;;;;;3.80;1.50;;;21.20;99.90;;;;;;5008130;28;20786;-86
2022/06/05 18:19:30;;;;;;;2.70;1.57;;;20.90;99.90;;;;;;4975178;28;20882;-87
2022/06/05 18:21:59;;;;;;;1.50;1.40;;;20.50;99.90;;;;;;5001429;28;21087;-87
2022/06/05 18:24:37;;;;;;;4.13;2.00;;;20.40;99.90;;;;;;4999781;28;21008;-86
2022/06/05 18:27:22;;;;;;;1.40;1.30;;;21.20;99.90;;;;;;4985592;28;20451;-86
2022/06/05 18:30:01;;;;;;;1.13;1.13;;;22.70;99.90;;;;;;5003805;28;20513;-86
2022/06/05 18:32:42;;;;;;;3.17;1.43;;;24.30;99.90;;;;;;4984710;28;20810;-86
2022/06/05 18:35:18;;;;;;;1.23;1.17;;;25.30;99.90;;;;;;4983235;28;20573;-85
2022/06/05 18:40:36;;;;;;;2.10;1.90;;;25.30;99.90;;;;;;4974392;28;20822;-85
2022/06/05 18:43:05;;;;;;;1.30;1.30;;;23.90;99.90;;;;;;4974774;28;20894;-85
2022/06/05 18:45:41;;;;;;;3.10;1.50;;;22.20;99.90;;;;;;4963247;28;20860;-85
2022/06/05 18:48:10;;;;;;;1.37;1.27;;;21.00;99.90;;;;;;4979874;28;20475;-84
2022/06/05 18:50:38;;;;;;;2.90;1.47;;;20.00;99.90;;;;;;4972362;28;20467;-84
2022/06/05 18:53:14;;;;;;;2.53;1.70;;;19.40;99.90;;;;;;4981613;28;20455;-84
2022/06/05 18:55:44;;;;;;;1.70;1.17;;;19.00;99.90;;;;;;4970342;28;20439;-83
2022/06/05 18:58:24;;;;;;;1.37;1.30;;;18.60;99.90;;;;;;4964108;28;21183;-84
2022/06/05 19:00:52;;;;;;;1.67;1.50;;;18.40;99.90;;;;;;5002571;28;20436;-84
2022/06/05 19:03:28;;;;;;;4.93;1.57;;;18.30;99.90;;;;;;4967589;28;20443;-83
2022/06/05 19:05:55;;;;;;;2.20;1.30;;;18.20;99.90;;;;;;4967707;28;20457;-84
2022/06/05 19:08:35;;;;;;;2.07;1.87;;;18.10;99.90;;;;;;4980081;28;20498;-84
2022/06/05 19:11:25;;;;;;;1.80;1.70;;;18.00;99.90;;;;;;4980702;28;20436;-84
2022/06/05 19:13:56;;;;;;;9.20;1.90;;;17.90;99.90;;;;;;4988086;28;20898;-83
2022/06/05 19:16:36;;;;;;;2.10;1.80;;;17.70;99.90;;;;;;5006833;28;20874;-84
2022/06/05 19:19:14;;;;;;;1.90;1.57;;;17.60;99.90;;;;;;5002611;28;20482;-84
2022/06/05 19:21:47;;;;;;;3.33;1.77;;;17.50;99.90;;;;;;4974018;28;20485;-84
2022/06/05 19:24:34;;;;;;;1.60;1.50;;;17.40;99.90;;;;;;4971686;28;20455;-85
2022/06/05 19:27:00;;;;;;;2.73;1.40;;;17.30;99.90;;;;;;5001531;28;20458;-83
2022/06/05 19:29:33;;;;;;;2.17;1.77;;;17.20;99.90;;;;;;4990569;28;20443;-84
2022/06/05 19:32:09;;;;;;;1.70;1.60;;;17.20;99.90;;;;;;4987730;28;20966;-84
2022/06/05 19:34:48;;;;;;;1.77;1.67;;;17.10;99.90;;;;;;4990990;28;20443;-84
2022/06/05 19:38:03;;;;;;;1.70;1.60;;;17.10;99.90;;;;;;4992575;28;20436;-84
2022/06/05 19:40:30;;;;;;;1.50;1.40;;;17.00;99.90;;;;;;4971559;28;20818;-86
2022/06/05 19:43:04;;;;;;;1.90;1.80;;;16.90;99.90;;;;;;4970926;28;20489;-84
2022/06/05 19:45:45;;;;;;;2.13;1.70;;;16.90;99.90;;;;;;4983052;28;20447;-84
2022/06/05 19:48:19;;;;;;;2.00;1.53;;;16.90;99.90;;;;;;4977181;28;20440;-84
2022/06/05 19:50:51;;;;;;;3.13;1.80;;;16.80;99.90;;;;;;4974091;28;20444;-84
2022/06/05 19:53:19;;;;;;;2.00;1.50;;;16.80;99.90;;;;;;4990500;28;21207;-84
2022/06/05 19:55:51;;;;;;;1.67;1.53;;;16.80;99.90;;;;;;5006663;28;20538;-84
2022/06/05 19:58:29;;;;;;;3.03;1.50;;;16.70;99.90;;;;;;4998695;28;21181;-83
2022/06/05 20:01:29;;;;;;;3.93;1.40;;;16.70;99.90;;;;;;4973524;28;20446;-84
2022/06/05 20:04:18;;;;;;;2.00;1.90;;;16.60;99.90;;;;;;4999310;28;20448;-84
2022/06/05 20:06:49;;;;;;;4.70;1.70;;;16.60;99.90;;;;;;4978874;28;20451;-84
2022/06/05 20:09:23;;;;;;;2.40;1.70;;;16.50;99.90;;;;;;4979674;28;20466;-85
2022/06/05 20:12:19;;;;;;;1.80;1.70;;;16.40;99.90;;;;;;4998680;28;20876;-85
2022/06/05 20:15:10;;;;;;;2.33;1.80;;;16.40;99.90;;;;;;5012405;28;20432;-85
2022/06/05 20:18:36;;;;;;;4.20;2.10;;;16.30;99.90;;;;;;5003305;28;21832;-85
2022/06/05 20:21:17;;;;;;;2.40;1.90;;;16.30;99.90;;;;;;4978389;28;21201;-87
2022/06/05 20:23:46;;;;;;;2.00;1.70;;;16.20;99.90;;;;;;5000532;28;20444;-87
2022/06/05 20:26:14;;;;;;;4.57;2.20;;;16.20;99.90;;;;;;5007271;28;20434;-85
2022/06/05 20:29:05;;;;;;;2.73;2.53;;;16.20;99.90;;;;;;4973388;28;21044;-87
2022/06/05 20:31:44;;;;;;;2.27;2.07;;;16.20;99.90;;;;;;4985827;28;20483;-87
2022/06/05 20:34:49;;;;;;;5.90;5.40;;;16.20;99.90;;;;;;4987610;28;20527;-88
2022/06/05 20:37:21;;;;;;;3.67;3.40;;;16.20;99.90;;;;;;4989593;28;20473;-88
2022/06/05 20:40:01;;;;;;;5.30;4.33;;;16.20;99.90;;;;;;4986797;28;20467;-88
2022/06/05 20:42:47;;;;;;;6.47;5.77;;;16.10;99.90;;;;;;4991369;28;20523;-88
2022/06/05 20:45:42;;;;;;;4.90;4.40;;;16.00;99.90;;;;;;4978413;28;20530;-86
2022/06/05 20:48:29;;;;;;;1.97;1.77;;;15.90;99.90;;;;;;4973849;28;20590;-86
2022/06/05 20:51:02;;;;;;;2.70;2.20;;;15.80;99.90;;;;;;4969805;28;20448;-86
2022/06/05 20:53:43;;;;;;;2.50;2.30;;;15.90;99.90;;;;;;4963209;28;21693;-86
2022/06/05 20:56:12;;;;;;;3.17;1.63;;;16.00;99.90;;;;;;4972369;28;20475;-87
2022/06/05 20:59:12;;;;;;;2.40;2.20;;;16.10;99.90;;;;;;4969935;28;20575;-87
2022/06/05 21:01:46;;;;;;;2.47;2.27;;;16.10;99.90;;;;;;4937644;28;20447;-87
2022/06/05 21:07:19;;;;;;;2.70;2.27;;;16.10;99.90;;;;;;4971016;28;20513;-87
2022/06/05 21:09:57;;;;;;;2.50;2.37;;;16.10;99.90;;;;;;4982492;28;20447;-86
2022/06/05 21:18:17;;;;;;;3.93;2.30;;;15.90;99.90;;;;;;4968866;28;22381;-87
2022/06/05 21:20:45;;;;;;;2.43;2.20;;;15.90;99.90;;;;;;4985638;28;20483;-86
2022/06/05 21:23:13;;;;;;;3.17;2.67;;;15.80;99.90;;;;;;4966413;28;20473;-87
2022/06/05 21:25:46;;;;;;;2.13;1.97;;;15.80;99.90;;;;;;4968525;28;21799;-87
2022/06/05 21:28:23;;;;;;;2.17;1.97;;;15.80;99.90;;;;;;4978016;28;20504;-87
2022/06/05 21:30:52;;;;;;;3.53;2.40;;;15.80;99.90;;;;;;4974057;28;20442;-87
2022/06/05 21:33:18;;;;;;;2.83;2.47;;;15.80;99.90;;;;;;4967949;28;20441;-87
2022/06/05 21:35:59;;;;;;;3.60;2.57;;;15.80;99.90;;;;;;4970277;28;20436;-87
2022/06/05 21:38:49;;;;;;;2.97;2.50;;;15.70;99.90;;;;;;4967742;28;20224;-87
2022/06/05 21:41:38;;;;;;;4.10;2.60;;;15.70;99.90;;;;;;4962247;28;20454;-87
2022/06/05 21:44:20;;;;;;;4.27;3.17;;;15.70;99.90;;;;;;4982969;28;20447;-86
2022/06/05 21:47:09;;;;;;;2.97;2.77;;;15.70;99.90;;;;;;4972229;28;21017;-87
2022/06/05 21:49:38;;;;;;;2.57;2.37;;;15.60;99.90;;;;;;4974715;28;20471;-87
2022/06/05 21:52:08;;;;;;;6.80;2.70;;;15.60;99.90;;;;;;4973637;28;20593;-87
2022/06/05 21:54:46;;;;;;;2.60;2.40;;;15.70;99.90;;;;;;4973254;28;20436;-87
2022/06/05 21:57:16;;;;;;;4.53;4.13;;;15.60;99.90;;;;;;4973666;28;20448;-87
2022/06/05 21:59:41;;;;;;;2.77;2.57;;;15.70;99.90;;;;;;4972528;28;20453;-87
2022/06/05 22:02:07;;;;;;;3.30;2.87;;;15.60;99.90;;;;;;4970805;28;20444;-87
2022/06/05 22:04:34;;;;;;;5.97;2.80;;;15.60;99.90;;;;;;4971694;28;20607;-87
2022/06/05 22:07:01;;;;;;;5.00;2.73;;;15.60;99.90;;;;;;4969254;28;20185;-87
2022/06/05 22:09:27;;;;;;;3.37;3.07;;;15.60;99.90;;;;;;4996552;28;20715;-87
2022/06/05 22:11:53;;;;;;;3.23;2.53;;;15.70;99.90;;;;;;4986225;28;20543;-87
2022/06/05 22:14:24;;;;;;;2.93;2.73;;;15.80;99.90;;;;;;4986892;28;20448;-87
2022/06/05 22:16:56;;;;;;;2.20;2.00;;;15.70;99.90;;;;;;4974155;28;20259;-87
2022/06/05 22:19:24;;;;;;;2.57;2.40;;;15.70;99.90;;;;;;4984497;28;20487;-87
2022/06/05 22:22:00;;;;;;;3.13;2.83;;;15.80;99.90;;;;;;4969561;28;20447;-87
2022/06/05 22:24:26;;;;;;;2.73;2.53;;;15.70;99.90;;;;;;4973320;28;21083;-87
2022/06/05 22:26:52;;;;;;;7.50;3.37;;;15.80;99.90;;;;;;5004236;28;21140;-86
2022/06/05 22:29:18;;;;;;;3.67;3.00;;;15.80;99.90;;;;;;4975145;28;21086;-86
2022/06/05 22:31:44;;;;;;;3.77;3.10;;;15.80;99.90;;;;;;4978125;28;20189;-86
2022/06/05 22:34:09;;;;;;;3.40;3.10;;;15.70;99.90;;;;;;4970488;28;20217;-87
2022/06/05 22:36:35;;;;;;;2.80;2.60;;;15.60;99.90;;;;;;4968331;28;22001;-87
2022/06/05 22:39:04;;;;;;;2.60;2.40;;;15.50;99.90;;;;;;4969942;28;20710;-86
2022/06/05 22:41:30;;;;;;;3.93;2.87;;;15.50;99.90;;;;;;4967224;28;20452;-86
2022/06/05 22:43:57;;;;;;;3.40;2.80;;;15.50;99.90;;;;;;4967492;28;20456;-86
2022/06/05 22:46:25;;;;;;;3.20;2.70;;;15.40;99.90;;;;;;4983471;28;20838;-87
2022/06/05 22:48:52;;;;;;;3.80;2.50;;;15.40;99.90;;;;;;4969981;28;20454;-87
2022/06/05 22:51:17;;;;;;;2.77;2.57;;;15.40;99.90;;;;;;4973060;28;21275;-86
2022/06/05 22:53:43;;;;;;;6.47;3.30;;;15.40;99.90;;;;;;4973433;28;20432;-87
2022/06/05 22:56:11;;;;;;;3.43;3.23;;;15.40;99.90;;;;;;4975690;28;20186;-87
2022/06/05 22:58:37;;;;;;;3.30;3.00;;;15.40;99.90;;;;;;4971032;28;20468;-86
2022/06/05 23:01:06;;;;;;;2.87;2.67;;;15.40;99.90;;;;;;4987254;28;20437;-86
2022/06/05 23:03:32;;;;;;;3.37;2.93;;;15.30;99.90;;;;;;4973734;28;21321;-87
2022/06/05 23:05:58;;;;;;;3.63;3.10;;;15.30;99.90;;;;;;4969759;28;20444;-86
2022/06/05 23:08:23;;;;;;;3.50;3.30;;;15.30;99.90;;;;;;4971790;28;20185;-87